sensor_id;sensor_type;location;lat;lon;timestamp;temperature;humidity
11536;DHT22;5824;49.336;8.652;2023-08-24T00:00:40;21.60;1.00
11536;DHT22;5824;49.336;8.652;2023-08-24T00:03:06;21.60;1.00
11536;DHT22;5824;49.336;8.652;2023-08-24T00:05:37;21.60;1.00
11536;DHT22;5824;49.336;8.652;2023-08-24T00:08:07;21.50;1.00
11536;DHT22;5824;49.336;8.652;2023-08-24T00:13:03;21.30;1.00
11536;DHT22;5824;49.336;8.652;2023-08-24T00:15:29;21.30;1.00
11536;DHT22;5824;49.336;8.652;2023-08-24T00:17:56;21.40;1.00
11536;DHT22;5824;49.336;8.652;2023-08-24T00:20:21;21.50;1.00
11536;DHT22;5824;49.336;8.652;2023-08-24T00:22:48;21.40;1.00
11536;DHT22;5824;49.336;8.652;2023-08-24T00:25:14;21.50;1.00
11536;DHT22;5824;49.336;8.652;2023-08-24T00:27:40;21.50;1.00
11536;DHT22;5824;49.336;8.652;2023-08-24T00:30:07;21.70;1.00
11536;DHT22;5824;49.336;8.652;2023-08-24T00:32:33;21.80;1.00
11536;DHT22;5824;49.336;8.652;2023-08-24T00:35:01;22.00;1.00
11536;DHT22;5824;49.336;8.652;2023-08-24T00:37:26;22.40;1.00
11536;DHT22;5824;49.336;8.652;2023-08-24T00:39:54;22.60;1.00
11536;DHT22;5824;49.336;8.652;2023-08-24T00:42:19;22.90;1.00
11536;DHT22;5824;49.336;8.652;2023-08-24T00:44:45;23.10;1.00
11536;DHT22;5824;49.336;8.652;2023-08-24T00:47:10;23.30;1.00
11536;DHT22;5824;49.336;8.652;2023-08-24T00:49:36;23.30;1.00
11536;DHT22;5824;49.336;8.652;2023-08-24T00:52:02;23.40;1.00
11536;DHT22;5824;49.336;8.652;2023-08-24T00:54:28;23.50;1.00
11536;DHT22;5824;49.336;8.652;2023-08-24T00:56:54;23.50;1.00
11536;DHT22;5824;49.336;8.652;2023-08-24T00:59:20;23.50;1.00
11536;DHT22;5824;49.336;8.652;2023-08-24T01:01:47;23.60;1.00
11536;DHT22;5824;49.336;8.652;2023-08-24T01:04:13;23.60;1.00
11536;DHT22;5824;49.336;8.652;2023-08-24T01:06:38;23.70;1.00
11536;DHT22;5824;49.336;8.652;2023-08-24T01:09:05;23.80;1.00
11536;DHT22;5824;49.336;8.652;2023-08-24T01:11:43;23.80;1.00
11536;DHT22;5824;49.336;8.652;2023-08-24T01:16:58;23.80;1.00
11536;DHT22;5824;49.336;8.652;2023-08-24T01:22:02;23.90;1.00
11536;DHT22;5824;49.336;8.652;2023-08-24T01:24:39;24.00;1.00
11536;DHT22;5824;49.336;8.652;2023-08-24T01:27:06;24.10;1.00
11536;DHT22;5824;49.336;8.652;2023-08-24T01:29:32;24.10;1.00
11536;DHT22;5824;49.336;8.652;2023-08-24T01:31:58;24.10;1.00
11536;DHT22;5824;49.336;8.652;2023-08-24T01:34:23;24.10;1.00
11536;DHT22;5824;49.336;8.652;2023-08-24T01:36:49;24.10;1.00
11536;DHT22;5824;49.336;8.652;2023-08-24T01:39:37;24.00;1.00
11536;DHT22;5824;49.336;8.652;2023-08-24T01:42:06;24.00;1.00
11536;DHT22;5824;49.336;8.652;2023-08-24T01:44:37;23.90;1.00
11536;DHT22;5824;49.336;8.652;2023-08-24T01:47:05;23.70;1.00
11536;DHT22;5824;49.336;8.652;2023-08-24T01:49:34;23.70;1.00
11536;DHT22;5824;49.336;8.652;2023-08-24T01:52:01;23.60;1.00
11536;DHT22;5824;49.336;8.652;2023-08-24T01:54:27;23.50;1.00
11536;DHT22;5824;49.336;8.652;2023-08-24T01:56:52;23.50;1.00
11536;DHT22;5824;49.336;8.652;2023-08-24T01:59:18;23.40;1.00
11536;DHT22;5824;49.336;8.652;2023-08-24T02:01:43;23.40;1.00
11536;DHT22;5824;49.336;8.652;2023-08-24T02:04:09;23.30;1.00
11536;DHT22;5824;49.336;8.652;2023-08-24T02:06:34;23.30;1.00
11536;DHT22;5824;49.336;8.652;2023-08-24T02:09:00;23.20;1.00
11536;DHT22;5824;49.336;8.652;2023-08-24T02:11:25;23.10;1.00
11536;DHT22;5824;49.336;8.652;2023-08-24T02:13:51;23.00;1.00
11536;DHT22;5824;49.336;8.652;2023-08-24T02:16:16;23.00;1.00
11536;DHT22;5824;49.336;8.652;2023-08-24T02:18:42;22.90;1.00
11536;DHT22;5824;49.336;8.652;2023-08-24T02:21:08;22.80;1.00
11536;DHT22;5824;49.336;8.652;2023-08-24T02:23:35;22.70;1.00
11536;DHT22;5824;49.336;8.652;2023-08-24T02:26:01;22.60;1.00
11536;DHT22;5824;49.336;8.652;2023-08-24T02:28:26;21.30;1.00
11536;DHT22;5824;49.336;8.652;2023-08-24T02:30:52;22.30;1.00
11536;DHT22;5824;49.336;8.652;2023-08-24T02:33:19;22.20;1.00
11536;DHT22;5824;49.336;8.652;2023-08-24T02:35:47;22.00;1.00
11536;DHT22;5824;49.336;8.652;2023-08-24T02:38:13;22.00;1.00
11536;DHT22;5824;49.336;8.652;2023-08-24T02:40:38;21.80;1.00
11536;DHT22;5824;49.336;8.652;2023-08-24T02:43:04;21.80;1.00
11536;DHT22;5824;49.336;8.652;2023-08-24T02:45:29;21.70;1.00
11536;DHT22;5824;49.336;8.652;2023-08-24T02:47:55;21.70;1.00
11536;DHT22;5824;49.336;8.652;2023-08-24T02:50:20;21.60;1.00
11536;DHT22;5824;49.336;8.652;2023-08-24T02:52:46;21.50;1.00
11536;DHT22;5824;49.336;8.652;2023-08-24T02:55:12;21.40;1.00
11536;DHT22;5824;49.336;8.652;2023-08-24T02:57:37;21.40;1.00
11536;DHT22;5824;49.336;8.652;2023-08-24T03:00:04;21.30;1.00
11536;DHT22;5824;49.336;8.652;2023-08-24T03:02:32;21.40;1.00
11536;DHT22;5824;49.336;8.652;2023-08-24T03:04:57;21.40;1.00
11536;DHT22;5824;49.336;8.652;2023-08-24T03:07:24;22.90;1.00
11536;DHT22;5824;49.336;8.652;2023-08-24T03:09:49;21.40;1.00
11536;DHT22;5824;49.336;8.652;2023-08-24T03:12:15;21.20;1.00
11536;DHT22;5824;49.336;8.652;2023-08-24T03:14:40;21.30;1.00
11536;DHT22;5824;49.336;8.652;2023-08-24T03:17:06;21.30;1.00
11536;DHT22;5824;49.336;8.652;2023-08-24T03:19:32;21.20;1.00
11536;DHT22;5824;49.336;8.652;2023-08-24T03:21:58;21.30;1.00
11536;DHT22;5824;49.336;8.652;2023-08-24T03:24:23;21.30;1.00
11536;DHT22;5824;49.336;8.652;2023-08-24T03:26:49;21.30;1.00
11536;DHT22;5824;49.336;8.652;2023-08-24T03:29:14;21.20;1.00
11536;DHT22;5824;49.336;8.652;2023-08-24T03:31:40;21.40;1.00
11536;DHT22;5824;49.336;8.652;2023-08-24T03:34:05;21.30;1.00
11536;DHT22;5824;49.336;8.652;2023-08-24T03:36:31;21.50;1.00
11536;DHT22;5824;49.336;8.652;2023-08-24T03:38:57;21.50;1.00
11536;DHT22;5824;49.336;8.652;2023-08-24T03:41:22;21.60;1.00
11536;DHT22;5824;49.336;8.652;2023-08-24T03:43:48;21.60;1.00
11536;DHT22;5824;49.336;8.652;2023-08-24T03:46:13;21.70;1.00
11536;DHT22;5824;49.336;8.652;2023-08-24T03:48:39;21.80;1.00
11536;DHT22;5824;49.336;8.652;2023-08-24T03:51:04;22.20;1.00
11536;DHT22;5824;49.336;8.652;2023-08-24T03:53:30;22.20;1.00
11536;DHT22;5824;49.336;8.652;2023-08-24T03:55:55;22.60;1.00
11536;DHT22;5824;49.336;8.652;2023-08-24T03:58:21;22.90;1.00
11536;DHT22;5824;49.336;8.652;2023-08-24T04:00:46;23.30;1.00
11536;DHT22;5824;49.336;8.652;2023-08-24T04:03:13;23.30;1.00
11536;DHT22;5824;49.336;8.652;2023-08-24T04:05:38;23.50;1.00
11536;DHT22;5824;49.336;8.652;2023-08-24T04:08:04;23.70;1.00
11536;DHT22;5824;49.336;8.652;2023-08-24T04:10:30;23.60;1.00
11536;DHT22;5824;49.336;8.652;2023-08-24T04:12:56;23.70;1.00
11536;DHT22;5824;49.336;8.652;2023-08-24T04:15:22;23.80;1.00
11536;DHT22;5824;49.336;8.652;2023-08-24T04:17:48;23.80;1.00
11536;DHT22;5824;49.336;8.652;2023-08-24T04:20:13;23.90;1.00
11536;DHT22;5824;49.336;8.652;2023-08-24T04:22:39;23.90;1.00
11536;DHT22;5824;49.336;8.652;2023-08-24T04:25:05;23.90;1.00
11536;DHT22;5824;49.336;8.652;2023-08-24T04:27:31;23.90;1.00
11536;DHT22;5824;49.336;8.652;2023-08-24T04:29:58;23.90;1.00
11536;DHT22;5824;49.336;8.652;2023-08-24T04:32:23;23.90;1.00
11536;DHT22;5824;49.336;8.652;2023-08-24T04:34:49;23.90;1.00
11536;DHT22;5824;49.336;8.652;2023-08-24T04:37:15;23.90;1.00
11536;DHT22;5824;49.336;8.652;2023-08-24T04:39:40;23.90;1.00
11536;DHT22;5824;49.336;8.652;2023-08-24T04:42:06;23.90;1.00
11536;DHT22;5824;49.336;8.652;2023-08-24T04:44:32;23.90;1.00
11536;DHT22;5824;49.336;8.652;2023-08-24T04:46:58;23.90;1.00
11536;DHT22;5824;49.336;8.652;2023-08-24T04:49:23;23.90;1.00
11536;DHT22;5824;49.336;8.652;2023-08-24T04:51:49;25.00;1.00
11536;DHT22;5824;49.336;8.652;2023-08-24T04:54:15;23.70;1.00
11536;DHT22;5824;49.336;8.652;2023-08-24T04:56:40;23.70;1.00
11536;DHT22;5824;49.336;8.652;2023-08-24T04:59:06;23.70;1.00
11536;DHT22;5824;49.336;8.652;2023-08-24T05:01:33;23.70;1.00
11536;DHT22;5824;49.336;8.652;2023-08-24T05:03:59;23.70;1.00
11536;DHT22;5824;49.336;8.652;2023-08-24T05:06:24;23.70;1.00
11536;DHT22;5824;49.336;8.652;2023-08-24T05:08:50;23.60;1.00
11536;DHT22;5824;49.336;8.652;2023-08-24T05:11:22;23.60;1.00
11536;DHT22;5824;49.336;8.652;2023-08-24T05:13:47;23.70;1.00
11536;DHT22;5824;49.336;8.652;2023-08-24T05:16:13;23.70;1.00
11536;DHT22;5824;49.336;8.652;2023-08-24T05:18:39;23.60;1.00
11536;DHT22;5824;49.336;8.652;2023-08-24T05:21:05;23.60;1.00
11536;DHT22;5824;49.336;8.652;2023-08-24T05:23:32;23.70;1.00
11536;DHT22;5824;49.336;8.652;2023-08-24T05:25:58;23.70;1.00
11536;DHT22;5824;49.336;8.652;2023-08-24T05:28:25;23.70;1.00
11536;DHT22;5824;49.336;8.652;2023-08-24T05:30:52;23.90;1.00
11536;DHT22;5824;49.336;8.652;2023-08-24T05:33:17;24.10;1.00
11536;DHT22;5824;49.336;8.652;2023-08-24T05:35:43;26.80;1.00
11536;DHT22;5824;49.336;8.652;2023-08-24T05:38:08;24.40;1.00
11536;DHT22;5824;49.336;8.652;2023-08-24T05:40:34;24.40;1.00
11536;DHT22;5824;49.336;8.652;2023-08-24T05:43:00;24.20;1.00
11536;DHT22;5824;49.336;8.652;2023-08-24T05:45:26;24.00;1.00
11536;DHT22;5824;49.336;8.652;2023-08-24T05:47:51;23.80;1.00
11536;DHT22;5824;49.336;8.652;2023-08-24T05:50:17;23.60;1.00
11536;DHT22;5824;49.336;8.652;2023-08-24T05:52:42;23.40;1.00
11536;DHT22;5824;49.336;8.652;2023-08-24T05:55:08;23.30;1.00
11536;DHT22;5824;49.336;8.652;2023-08-24T05:57:33;23.50;1.00
11536;DHT22;5824;49.336;8.652;2023-08-24T05:59:59;23.30;1.00
11536;DHT22;5824;49.336;8.652;2023-08-24T06:02:24;23.10;1.00
11536;DHT22;5824;49.336;8.652;2023-08-24T06:04:50;23.10;1.00
11536;DHT22;5824;49.336;8.652;2023-08-24T06:07:16;23.20;1.00
11536;DHT22;5824;49.336;8.652;2023-08-24T06:09:42;23.40;1.00
11536;DHT22;5824;49.336;8.652;2023-08-24T06:12:08;23.40;1.00
11536;DHT22;5824;49.336;8.652;2023-08-24T06:14:33;23.50;1.00
11536;DHT22;5824;49.336;8.652;2023-08-24T06:16:59;23.70;1.00
11536;DHT22;5824;49.336;8.652;2023-08-24T06:19:24;23.80;1.00
11536;DHT22;5824;49.336;8.652;2023-08-24T06:21:50;24.00;1.00
11536;DHT22;5824;49.336;8.652;2023-08-24T06:24:16;24.10;1.00
11536;DHT22;5824;49.336;8.652;2023-08-24T06:26:41;24.20;1.00
11536;DHT22;5824;49.336;8.652;2023-08-24T06:29:07;24.40;1.00
11536;DHT22;5824;49.336;8.652;2023-08-24T06:31:32;24.50;1.00
11536;DHT22;5824;49.336;8.652;2023-08-24T06:33:58;24.60;1.00
11536;DHT22;5824;49.336;8.652;2023-08-24T06:36:24;24.60;1.00
11536;DHT22;5824;49.336;8.652;2023-08-24T06:38:49;24.60;1.00
11536;DHT22;5824;49.336;8.652;2023-08-24T06:41:15;24.70;1.00
11536;DHT22;5824;49.336;8.652;2023-08-24T06:43:40;24.70;1.00
11536;DHT22;5824;49.336;8.652;2023-08-24T06:46:06;24.80;1.00
11536;DHT22;5824;49.336;8.652;2023-08-24T06:51:02;25.00;1.00
11536;DHT22;5824;49.336;8.652;2023-08-24T06:53:28;25.40;1.00
11536;DHT22;5824;49.336;8.652;2023-08-24T06:55:57;25.20;1.00
11536;DHT22;5824;49.336;8.652;2023-08-24T06:58:23;25.30;1.00
11536;DHT22;5824;49.336;8.652;2023-08-24T07:00:49;25.20;1.00
11536;DHT22;5824;49.336;8.652;2023-08-24T07:03:17;25.20;1.00
11536;DHT22;5824;49.336;8.652;2023-08-24T07:05:43;26.30;1.00
11536;DHT22;5824;49.336;8.652;2023-08-24T07:08:09;25.00;1.00
11536;DHT22;5824;49.336;8.652;2023-08-24T07:10:34;25.00;1.00
11536;DHT22;5824;49.336;8.652;2023-08-24T07:13:00;25.00;1.00
11536;DHT22;5824;49.336;8.652;2023-08-24T07:17:51;25.20;1.00
11536;DHT22;5824;49.336;8.652;2023-08-24T07:20:17;25.40;1.00
11536;DHT22;5824;49.336;8.652;2023-08-24T07:22:43;25.60;1.00
11536;DHT22;5824;49.336;8.652;2023-08-24T07:27:36;26.30;1.00
11536;DHT22;5824;49.336;8.652;2023-08-24T07:30:03;26.40;1.00
11536;DHT22;5824;49.336;8.652;2023-08-24T07:32:31;26.60;1.00
11536;DHT22;5824;49.336;8.652;2023-08-24T07:34:57;26.90;1.00
11536;DHT22;5824;49.336;8.652;2023-08-24T07:37:25;26.90;1.00
11536;DHT22;5824;49.336;8.652;2023-08-24T07:39:50;27.00;1.00
11536;DHT22;5824;49.336;8.652;2023-08-24T07:42:20;27.60;1.00
11536;DHT22;5824;49.336;8.652;2023-08-24T07:44:45;28.60;1.00
11536;DHT22;5824;49.336;8.652;2023-08-24T07:47:11;28.10;1.00
11536;DHT22;5824;49.336;8.652;2023-08-24T07:49:36;27.80;1.00
11536;DHT22;5824;49.336;8.652;2023-08-24T07:52:02;27.80;1.00
11536;DHT22;5824;49.336;8.652;2023-08-24T07:54:27;27.60;1.00
11536;DHT22;5824;49.336;8.652;2023-08-24T07:56:53;27.50;1.00
11536;DHT22;5824;49.336;8.652;2023-08-24T07:59:18;27.40;1.00
11536;DHT22;5824;49.336;8.652;2023-08-24T08:04:10;27.10;1.00
11536;DHT22;5824;49.336;8.652;2023-08-24T08:06:35;27.10;1.00
11536;DHT22;5824;49.336;8.652;2023-08-24T08:09:01;27.20;1.00
11536;DHT22;5824;49.336;8.652;2023-08-24T08:11:27;27.30;1.00
11536;DHT22;5824;49.336;8.652;2023-08-24T08:13:52;28.40;1.00
11536;DHT22;5824;49.336;8.652;2023-08-24T08:16:18;28.40;1.00
11536;DHT22;5824;49.336;8.652;2023-08-24T08:18:43;29.00;1.00
11536;DHT22;5824;49.336;8.652;2023-08-24T08:21:10;29.30;1.00
11536;DHT22;5824;49.336;8.652;2023-08-24T08:23:38;30.10;1.00
11536;DHT22;5824;49.336;8.652;2023-08-24T08:26:04;31.30;1.00
11536;DHT22;5824;49.336;8.652;2023-08-24T08:28:29;32.30;1.00
11536;DHT22;5824;49.336;8.652;2023-08-24T08:33:21;34.00;1.00
11536;DHT22;5824;49.336;8.652;2023-08-24T08:35:47;34.50;1.00
11536;DHT22;5824;49.336;8.652;2023-08-24T08:38:12;35.10;1.00
11536;DHT22;5824;49.336;8.652;2023-08-24T08:47:59;36.60;1.00
11536;DHT22;5824;49.336;8.652;2023-08-24T08:50:25;36.50;1.00
11536;DHT22;5824;49.336;8.652;2023-08-24T08:52:51;37.10;1.00
11536;DHT22;5824;49.336;8.652;2023-08-24T08:55:17;36.70;1.00
11536;DHT22;5824;49.336;8.652;2023-08-24T08:57:44;36.70;1.00
11536;DHT22;5824;49.336;8.652;2023-08-24T09:00:11;37.30;1.00
11536;DHT22;5824;49.336;8.652;2023-08-24T09:02:43;37.80;1.00
11536;DHT22;5824;49.336;8.652;2023-08-24T09:05:10;38.00;1.00
11536;DHT22;5824;49.336;8.652;2023-08-24T09:07:37;37.90;1.00
11536;DHT22;5824;49.336;8.652;2023-08-24T09:10:04;38.20;1.00
11536;DHT22;5824;49.336;8.652;2023-08-24T09:12:32;38.60;1.00
11536;DHT22;5824;49.336;8.652;2023-08-24T09:15:03;39.40;1.00
11536;DHT22;5824;49.336;8.652;2023-08-24T09:17:29;40.20;1.00
11536;DHT22;5824;49.336;8.652;2023-08-24T09:19:58;40.40;1.00
11536;DHT22;5824;49.336;8.652;2023-08-24T09:22:24;40.80;1.00
11536;DHT22;5824;49.336;8.652;2023-08-24T09:24:50;41.20;1.00
11536;DHT22;5824;49.336;8.652;2023-08-24T09:27:21;41.40;1.00
11536;DHT22;5824;49.336;8.652;2023-08-24T09:29:50;41.70;1.00
11536;DHT22;5824;49.336;8.652;2023-08-24T09:32:32;42.00;1.00
11536;DHT22;5824;49.336;8.652;2023-08-24T09:35:24;42.00;1.00
11536;DHT22;5824;49.336;8.652;2023-08-24T09:37:51;42.00;1.00
11536;DHT22;5824;49.336;8.652;2023-08-24T09:40:24;42.60;1.00
11536;DHT22;5824;49.336;8.652;2023-08-24T09:42:49;42.60;1.00
11536;DHT22;5824;49.336;8.652;2023-08-24T09:45:15;40.90;1.00
11536;DHT22;5824;49.336;8.652;2023-08-24T09:47:50;41.00;1.00
11536;DHT22;5824;49.336;8.652;2023-08-24T09:50:17;41.40;1.00
11536;DHT22;5824;49.336;8.652;2023-08-24T09:52:43;41.40;1.00
11536;DHT22;5824;49.336;8.652;2023-08-24T09:55:11;41.00;1.00
11536;DHT22;5824;49.336;8.652;2023-08-24T09:57:38;41.00;1.00
11536;DHT22;5824;49.336;8.652;2023-08-24T10:00:09;40.90;1.00
11536;DHT22;5824;49.336;8.652;2023-08-24T10:02:50;40.80;1.00
11536;DHT22;5824;49.336;8.652;2023-08-24T10:05:20;41.00;1.00
11536;DHT22;5824;49.336;8.652;2023-08-24T10:07:52;40.90;1.00
11536;DHT22;5824;49.336;8.652;2023-08-24T10:10:20;40.30;1.00
11536;DHT22;5824;49.336;8.652;2023-08-24T10:12:50;40.20;1.00
11536;DHT22;5824;49.336;8.652;2023-08-24T10:15:18;39.90;1.00
11536;DHT22;5824;49.336;8.652;2023-08-24T10:17:45;39.80;1.00
11536;DHT22;5824;49.336;8.652;2023-08-24T10:20:11;38.90;1.00
11536;DHT22;5824;49.336;8.652;2023-08-24T10:22:37;38.20;1.00
11536;DHT22;5824;49.336;8.652;2023-08-24T10:25:03;38.30;1.00
11536;DHT22;5824;49.336;8.652;2023-08-24T10:27:29;38.90;1.00
11536;DHT22;5824;49.336;8.652;2023-08-24T10:29:56;40.10;1.00
11536;DHT22;5824;49.336;8.652;2023-08-24T10:32:23;40.50;1.00
11536;DHT22;5824;49.336;8.652;2023-08-24T10:34:52;41.20;1.00
11536;DHT22;5824;49.336;8.652;2023-08-24T10:37:25;41.80;1.00
11536;DHT22;5824;49.336;8.652;2023-08-24T10:39:51;42.10;1.00
11536;DHT22;5824;49.336;8.652;2023-08-24T10:42:16;42.70;1.00
11536;DHT22;5824;49.336;8.652;2023-08-24T10:44:46;42.90;1.00
11536;DHT22;5824;49.336;8.652;2023-08-24T10:47:18;43.00;1.00
11536;DHT22;5824;49.336;8.652;2023-08-24T10:52:22;43.10;1.00
11536;DHT22;5824;49.336;8.652;2023-08-24T10:54:50;42.60;1.00
11536;DHT22;5824;49.336;8.652;2023-08-24T10:57:20;41.90;1.00
11536;DHT22;5824;49.336;8.652;2023-08-24T11:00:02;41.50;1.00
11536;DHT22;5824;49.336;8.652;2023-08-24T11:02:40;41.70;1.00
11536;DHT22;5824;49.336;8.652;2023-08-24T11:05:14;42.80;1.00
11536;DHT22;5824;49.336;8.652;2023-08-24T11:07:57;42.90;1.00
11536;DHT22;5824;49.336;8.652;2023-08-24T11:10:45;42.90;1.00
11536;DHT22;5824;49.336;8.652;2023-08-24T11:13:17;43.10;1.00
11536;DHT22;5824;49.336;8.652;2023-08-24T11:15:46;43.50;1.00
11536;DHT22;5824;49.336;8.652;2023-08-24T11:21:01;44.50;1.00
11536;DHT22;5824;49.336;8.652;2023-08-24T11:23:30;45.30;1.00
11536;DHT22;5824;49.336;8.652;2023-08-24T11:25:57;45.70;1.00
11536;DHT22;5824;49.336;8.652;2023-08-24T11:28:25;45.90;1.00
11536;DHT22;5824;49.336;8.652;2023-08-24T11:30:51;45.30;1.00
11536;DHT22;5824;49.336;8.652;2023-08-24T11:33:30;45.10;1.00
11536;DHT22;5824;49.336;8.652;2023-08-24T11:35:56;44.60;1.00
11536;DHT22;5824;49.336;8.652;2023-08-24T11:38:21;44.20;1.00
11536;DHT22;5824;49.336;8.652;2023-08-24T11:40:47;43.90;1.00
11536;DHT22;5824;49.336;8.652;2023-08-24T11:43:20;43.70;1.00
11536;DHT22;5824;49.336;8.652;2023-08-24T11:45:46;43.90;1.00
11536;DHT22;5824;49.336;8.652;2023-08-24T11:48:11;43.60;1.00
11536;DHT22;5824;49.336;8.652;2023-08-24T11:50:37;42.00;1.00
11536;DHT22;5824;49.336;8.652;2023-08-24T11:53:06;41.00;1.00
11536;DHT22;5824;49.336;8.652;2023-08-24T11:55:32;39.90;1.00
11536;DHT22;5824;49.336;8.652;2023-08-24T11:57:57;39.80;1.00
11536;DHT22;5824;49.336;8.652;2023-08-24T12:00:24;40.30;1.00
11536;DHT22;5824;49.336;8.652;2023-08-24T12:02:50;40.50;1.00
11536;DHT22;5824;49.336;8.652;2023-08-24T12:05:22;39.60;1.00
11536;DHT22;5824;49.336;8.652;2023-08-24T12:07:48;39.60;1.00
11536;DHT22;5824;49.336;8.652;2023-08-24T12:10:14;39.10;1.00
11536;DHT22;5824;49.336;8.652;2023-08-24T12:12:39;38.80;1.00
11536;DHT22;5824;49.336;8.652;2023-08-24T12:15:05;39.20;1.00
11536;DHT22;5824;49.336;8.652;2023-08-24T12:17:42;39.20;1.00
11536;DHT22;5824;49.336;8.652;2023-08-24T12:20:15;38.80;1.00
11536;DHT22;5824;49.336;8.652;2023-08-24T12:22:41;39.20;1.00
11536;DHT22;5824;49.336;8.652;2023-08-24T12:27:32;40.40;1.00
11536;DHT22;5824;49.336;8.652;2023-08-24T12:30:01;40.90;1.00
11536;DHT22;5824;49.336;8.652;2023-08-24T12:32:42;40.90;1.00
11536;DHT22;5824;49.336;8.652;2023-08-24T12:35:08;41.20;1.00
11536;DHT22;5824;49.336;8.652;2023-08-24T12:37:35;41.20;1.00
11536;DHT22;5824;49.336;8.652;2023-08-24T12:40:04;41.10;1.00
11536;DHT22;5824;49.336;8.652;2023-08-24T12:42:31;41.00;1.00
11536;DHT22;5824;49.336;8.652;2023-08-24T12:44:56;41.00;1.00
11536;DHT22;5824;49.336;8.652;2023-08-24T12:47:22;40.90;1.00
11536;DHT22;5824;49.336;8.652;2023-08-24T12:49:47;40.70;1.00
11536;DHT22;5824;49.336;8.652;2023-08-24T12:52:14;40.50;1.00
11536;DHT22;5824;49.336;8.652;2023-08-24T12:54:39;40.90;1.00
11536;DHT22;5824;49.336;8.652;2023-08-24T12:57:05;41.00;1.00
11536;DHT22;5824;49.336;8.652;2023-08-24T12:59:30;40.60;1.00
11536;DHT22;5824;49.336;8.652;2023-08-24T13:01:55;40.10;1.00
11536;DHT22;5824;49.336;8.652;2023-08-24T13:04:21;40.10;1.00
11536;DHT22;5824;49.336;8.652;2023-08-24T13:06:47;39.80;1.00
11536;DHT22;5824;49.336;8.652;2023-08-24T13:09:12;39.70;1.00
11536;DHT22;5824;49.336;8.652;2023-08-24T13:11:39;40.50;1.00
11536;DHT22;5824;49.336;8.652;2023-08-24T13:14:04;40.90;1.00
11536;DHT22;5824;49.336;8.652;2023-08-24T13:16:30;40.70;1.00
11536;DHT22;5824;49.336;8.652;2023-08-24T13:18:56;40.20;1.00
11536;DHT22;5824;49.336;8.652;2023-08-24T13:21:21;40.60;1.00
11536;DHT22;5824;49.336;8.652;2023-08-24T13:23:48;41.50;1.00
11536;DHT22;5824;49.336;8.652;2023-08-24T13:26:17;41.90;1.00
11536;DHT22;5824;49.336;8.652;2023-08-24T13:28:44;42.00;1.00
11536;DHT22;5824;49.336;8.652;2023-08-24T13:31:10;42.40;1.00
11536;DHT22;5824;49.336;8.652;2023-08-24T13:33:35;43.20;1.00
11536;DHT22;5824;49.336;8.652;2023-08-24T13:36:01;44.40;1.00
11536;DHT22;5824;49.336;8.652;2023-08-24T13:38:27;45.40;1.00
11536;DHT22;5824;49.336;8.652;2023-08-24T13:40:52;45.90;1.00
11536;DHT22;5824;49.336;8.652;2023-08-24T13:43:18;46.10;1.00
11536;DHT22;5824;49.336;8.652;2023-08-24T13:45:45;45.90;1.00
11536;DHT22;5824;49.336;8.652;2023-08-24T13:48:10;45.10;1.00
11536;DHT22;5824;49.336;8.652;2023-08-24T13:50:36;45.00;1.00
11536;DHT22;5824;49.336;8.652;2023-08-24T13:53:02;44.50;1.00
11536;DHT22;5824;49.336;8.652;2023-08-24T13:55:27;43.50;1.00
11536;DHT22;5824;49.336;8.652;2023-08-24T13:57:53;42.60;1.00
11536;DHT22;5824;49.336;8.652;2023-08-24T14:00:18;41.70;1.00
11536;DHT22;5824;49.336;8.652;2023-08-24T14:02:44;40.70;1.00
11536;DHT22;5824;49.336;8.652;2023-08-24T14:05:10;38.60;1.00
11536;DHT22;5824;49.336;8.652;2023-08-24T14:07:36;38.50;1.00
11536;DHT22;5824;49.336;8.652;2023-08-24T14:10:03;37.70;1.00
11536;DHT22;5824;49.336;8.652;2023-08-24T14:12:28;37.00;1.00
11536;DHT22;5824;49.336;8.652;2023-08-24T14:14:55;36.60;1.00
11536;DHT22;5824;49.336;8.652;2023-08-24T14:17:21;36.20;1.00
11536;DHT22;5824;49.336;8.652;2023-08-24T14:19:46;35.80;1.00
11536;DHT22;5824;49.336;8.652;2023-08-24T14:22:12;35.40;1.00
11536;DHT22;5824;49.336;8.652;2023-08-24T14:24:37;35.00;1.00
11536;DHT22;5824;49.336;8.652;2023-08-24T14:27:03;34.70;1.00
11536;DHT22;5824;49.336;8.652;2023-08-24T14:29:28;34.30;1.00
11536;DHT22;5824;49.336;8.652;2023-08-24T14:31:54;33.80;1.00
11536;DHT22;5824;49.336;8.652;2023-08-24T14:34:19;33.40;1.00
11536;DHT22;5824;49.336;8.652;2023-08-24T14:36:45;33.00;1.00
11536;DHT22;5824;49.336;8.652;2023-08-24T14:39:10;32.60;1.00
11536;DHT22;5824;49.336;8.652;2023-08-24T14:41:36;32.30;1.00
11536;DHT22;5824;49.336;8.652;2023-08-24T14:44:01;32.00;1.00
11536;DHT22;5824;49.336;8.652;2023-08-24T14:46:27;31.50;1.00
11536;DHT22;5824;49.336;8.652;2023-08-24T14:48:52;31.40;1.00
11536;DHT22;5824;49.336;8.652;2023-08-24T14:51:18;30.70;1.00
11536;DHT22;5824;49.336;8.652;2023-08-24T14:53:44;30.50;1.00
11536;DHT22;5824;49.336;8.652;2023-08-24T14:56:10;30.30;1.00
11536;DHT22;5824;49.336;8.652;2023-08-24T14:58:36;30.20;1.00
11536;DHT22;5824;49.336;8.652;2023-08-24T15:01:02;29.90;1.00
11536;DHT22;5824;49.336;8.652;2023-08-24T15:03:28;29.60;1.00
11536;DHT22;5824;49.336;8.652;2023-08-24T15:05:59;29.40;1.00
11536;DHT22;5824;49.336;8.652;2023-08-24T15:08:25;29.00;1.00
11536;DHT22;5824;49.336;8.652;2023-08-24T15:10:50;28.50;1.00
11536;DHT22;5824;49.336;8.652;2023-08-24T15:13:16;28.30;1.00
11536;DHT22;5824;49.336;8.652;2023-08-24T15:15:41;28.10;1.00
11536;DHT22;5824;49.336;8.652;2023-08-24T15:18:09;28.10;1.00
11536;DHT22;5824;49.336;8.652;2023-08-24T15:20:34;28.10;1.00
11536;DHT22;5824;49.336;8.652;2023-08-24T15:23:00;28.30;1.00
11536;DHT22;5824;49.336;8.652;2023-08-24T15:25:26;28.50;1.00
11536;DHT22;5824;49.336;8.652;2023-08-24T15:27:52;28.50;1.00
11536;DHT22;5824;49.336;8.652;2023-08-24T15:30:18;28.50;1.00
11536;DHT22;5824;49.336;8.652;2023-08-24T15:32:43;28.40;1.00
11536;DHT22;5824;49.336;8.652;2023-08-24T15:35:09;28.50;1.00
11536;DHT22;5824;49.336;8.652;2023-08-24T15:37:34;28.50;1.00
11536;DHT22;5824;49.336;8.652;2023-08-24T15:40:00;28.60;1.00
11536;DHT22;5824;49.336;8.652;2023-08-24T15:42:26;28.70;1.00
11536;DHT22;5824;49.336;8.652;2023-08-24T15:44:52;29.00;1.00
11536;DHT22;5824;49.336;8.652;2023-08-24T15:47:18;29.20;1.00
11536;DHT22;5824;49.336;8.652;2023-08-24T15:49:43;29.00;1.00
11536;DHT22;5824;49.336;8.652;2023-08-24T15:52:08;29.20;1.00
11536;DHT22;5824;49.336;8.652;2023-08-24T15:54:34;28.90;1.00
11536;DHT22;5824;49.336;8.652;2023-08-24T15:57:00;28.80;1.00
11536;DHT22;5824;49.336;8.652;2023-08-24T15:59:25;28.70;1.00
11536;DHT22;5824;49.336;8.652;2023-08-24T16:01:51;28.60;1.00
11536;DHT22;5824;49.336;8.652;2023-08-24T16:04:17;28.60;1.00
11536;DHT22;5824;49.336;8.652;2023-08-24T16:06:43;28.50;1.00
11536;DHT22;5824;49.336;8.652;2023-08-24T16:09:09;28.70;1.00
11536;DHT22;5824;49.336;8.652;2023-08-24T16:11:35;28.50;1.00
11536;DHT22;5824;49.336;8.652;2023-08-24T16:14:02;28.60;1.00
11536;DHT22;5824;49.336;8.652;2023-08-24T16:16:28;28.70;1.00
11536;DHT22;5824;49.336;8.652;2023-08-24T16:18:55;28.80;1.00
11536;DHT22;5824;49.336;8.652;2023-08-24T16:21:22;29.10;1.00
11536;DHT22;5824;49.336;8.652;2023-08-24T16:23:47;28.60;1.00
11536;DHT22;5824;49.336;8.652;2023-08-24T16:26:13;28.40;1.00
11536;DHT22;5824;49.336;8.652;2023-08-24T16:28:38;28.20;1.00
11536;DHT22;5824;49.336;8.652;2023-08-24T16:31:04;28.10;1.00
11536;DHT22;5824;49.336;8.652;2023-08-24T16:33:29;28.10;1.00